Time;durP1;ratioP1;P1;durP2;ratioP2;P2;SDS_P1;SDS_P2;PMS_P1;PMS_P2;Temp;Humidity;BMP_temperature;BMP_pressure;BME280_temperature;BME280_humidity;BME280_pressure;Samples;Min_cycle;Max_cycle;Signal;HPM_P1;HPM_P2
2021/01/24 00:02:17;;;;;;;;;;;9.60;99.90;;;;;;5051035;28;19943;-69
2021/01/24 00:05:21;;;;;;;;;;;9.60;99.90;;;;;;5050124;28;19928;-69
2021/01/24 00:08:25;;;;;;;;;;;9.60;99.90;;;;;;5051288;28;19928;-69
2021/01/24 00:11:29;;;;;;;;;;;9.60;99.90;;;;;;5049926;28;19920;-69
2021/01/24 00:14:33;;;;;;;;;;;9.60;99.90;;;;;;5050774;28;19924;-70
2021/01/24 00:17:38;;;;;;;;;;;9.50;99.90;;;;;;5051608;28;19920;-69
2021/01/24 00:20:41;;;;;;;;;;;9.40;99.90;;;;;;5049847;28;19928;-69
2021/01/24 00:23:45;;;;;;;;;;;9.40;99.90;;;;;;5051028;28;19924;-69
2021/01/24 00:26:50;;;;;;;;;;;9.50;99.90;;;;;;5051637;28;19920;-69
2021/01/24 00:29:54;;;;;;;;;;;9.50;99.90;;;;;;5050435;28;19920;-68
2021/01/24 00:32:58;;;;;;;;;;;9.50;99.90;;;;;;5051578;28;20287;-69
2021/01/24 00:36:02;;;;;;;;;;;9.40;99.90;;;;;;5050183;28;20454;-68
2021/01/24 00:39:06;;;;;;;;;;;9.40;99.90;;;;;;5051119;28;20391;-69
2021/01/24 00:42:11;;;;;;;;;;;9.40;99.90;;;;;;5051176;28;19927;-70
2021/01/24 00:45:15;;;;;;;;;;;9.40;99.90;;;;;;5049940;28;20486;-69
2021/01/24 00:48:19;;;;;;;;;;;9.50;99.90;;;;;;5051166;28;20374;-68
2021/01/24 00:51:24;;;;;;;;;;;9.40;99.90;;;;;;5050242;28;20256;-68
2021/01/24 00:54:30;;;;;;;;;;;9.50;99.90;;;;;;5050416;28;19920;-69
2021/01/24 00:57:34;;;;;;;;;;;9.30;99.90;;;;;;5051103;28;19928;-70
2021/01/24 01:00:38;;;;;;;;;;;9.40;99.90;;;;;;5050143;28;19924;-69
2021/01/24 01:03:42;;;;;;;;;;;9.40;99.90;;;;;;5051010;28;19920;-68
2021/01/24 01:06:46;;;;;;;;;;;9.30;99.90;;;;;;5049902;28;19924;-69
2021/01/24 01:09:50;;;;;;;;;;;9.40;99.90;;;;;;5050279;28;19920;-69
2021/01/24 01:12:54;;;;;;;;;;;9.40;99.90;;;;;;5050492;28;19924;-68
2021/01/24 01:15:58;;;;;;;;;;;9.30;99.90;;;;;;5050667;28;19924;-69
2021/01/24 01:19:02;;;;;;;;;;;9.30;99.90;;;;;;5050445;28;19924;-68
2021/01/24 01:22:06;;;;;;;;;;;9.30;99.90;;;;;;5050853;28;20287;-69
2021/01/24 01:25:10;;;;;;;;;;;9.50;99.90;;;;;;5054050;28;20405;-69
2021/01/24 01:28:14;;;;;;;;;;;9.40;99.90;;;;;;5054039;28;20386;-69
2021/01/24 01:31:18;;;;;;;;;;;9.40;99.90;;;;;;5053508;28;19920;-68
2021/01/24 01:34:22;;;;;;;;;;;9.60;99.90;;;;;;5054006;28;19924;-69
2021/01/24 01:37:26;;;;;;;;;;;9.60;99.90;;;;;;5053642;28;19919;-69
2021/01/24 01:40:30;;;;;;;;;;;9.50;99.90;;;;;;5041849;28;19928;-68
2021/01/24 01:43:34;;;;;;;;;;;9.60;99.90;;;;;;5053634;28;19924;-68
2021/01/24 01:46:40;;;;;;;;;;;9.60;99.90;;;;;;5053582;28;19943;-69
2021/01/24 01:49:43;;;;;;;;;;;9.50;99.90;;;;;;5048171;28;19920;-68
2021/01/24 01:52:48;;;;;;;;;;;9.60;99.90;;;;;;5040555;28;19919;-69
2021/01/24 01:55:53;;;;;;;;;;;9.80;99.90;;;;;;5053477;28;19920;-69
2021/01/24 01:58:57;;;;;;;;;;;9.70;99.90;;;;;;5053553;28;19920;-69
2021/01/24 02:02:05;;;;;;;;;;;9.80;99.90;;;;;;5040448;28;19939;-68
2021/01/24 02:05:27;;;;;;;;;;;9.80;99.90;;;;;;5053087;28;19920;-68
2021/01/24 02:08:41;;;;;;;;;;;9.90;99.90;;;;;;5053297;28;20327;-68
2021/01/24 02:11:45;;;;;;;;;;;9.90;99.90;;;;;;5051435;28;19923;-68
2021/01/24 02:15:03;;;;;;;;;;;10.00;99.90;;;;;;5048249;28;19963;-69
2021/01/24 02:18:09;;;;;;;;;;;9.90;99.90;;;;;;5042872;28;19924;-69
2021/01/24 02:21:16;;;;;;;;;;;9.90;99.90;;;;;;5051881;28;19940;-69
2021/01/24 02:24:21;;;;;;;;;;;9.90;99.90;;;;;;5050713;28;19920;-69
2021/01/24 02:27:40;;;;;;;;;;;9.90;99.90;;;;;;5052149;28;19936;-69
2021/01/24 02:30:45;;;;;;;;;;;9.90;99.90;;;;;;5051731;28;19970;-69
2021/01/24 02:33:49;;;;;;;;;;;9.80;99.90;;;;;;5052459;28;19927;-69
2021/01/24 02:36:53;;;;;;;;;;;9.90;99.90;;;;;;5052113;28;20371;-69
2021/01/24 02:39:58;;;;;;;;;;;9.90;99.90;;;;;;5038117;28;19924;-68
2021/01/24 02:43:03;;;;;;;;;;;9.90;99.90;;;;;;5052365;28;19936;-69
2021/01/24 02:46:08;;;;;;;;;;;9.90;99.90;;;;;;5052052;28;19920;-69
2021/01/24 02:49:13;;;;;;;;;;;9.90;99.90;;;;;;5052559;28;20383;-69
2021/01/24 02:52:18;;;;;;;;;;;9.90;99.90;;;;;;5052773;28;19928;-68
2021/01/24 02:55:21;;;;;;;;;;;10.00;99.90;;;;;;5039094;28;20752;-68
2021/01/24 02:58:25;;;;;;;;;;;10.10;99.90;;;;;;5051296;28;19987;-69
2021/01/24 03:01:29;;;;;;;;;;;10.10;99.90;;;;;;5051337;28;19941;-68
2021/01/24 03:04:33;;;;;;;;;;;10.10;99.90;;;;;;5052127;28;19919;-69
2021/01/24 03:07:37;;;;;;;;;;;10.10;99.90;;;;;;5051589;28;19927;-69
2021/01/24 03:10:41;;;;;;;;;;;10.10;99.90;;;;;;5038671;28;19923;-69
2021/01/24 03:14:05;;;;;;;;;;;10.10;99.90;;;;;;5051813;28;19987;-69
2021/01/24 03:17:11;;;;;;;;;;;10.00;99.90;;;;;;5052008;28;19923;-68
2021/01/24 03:20:15;;;;;;;;;;;10.00;99.90;;;;;;5050800;28;19917;-67
2021/01/24 03:23:21;;;;;;;;;;;9.90;99.90;;;;;;5052046;28;19920;-69
2021/01/24 03:26:25;;;;;;;;;;;9.90;99.90;;;;;;5051919;28;19920;-69
2021/01/24 03:29:29;;;;;;;;;;;9.90;99.90;;;;;;5038072;28;19987;-69
2021/01/24 03:32:33;;;;;;;;;;;9.70;99.90;;;;;;5051790;28;19920;-70
2021/01/24 03:35:37;;;;;;;;;;;9.60;99.90;;;;;;5051214;28;19952;-69
2021/01/24 03:38:41;;;;;;;;;;;9.30;99.90;;;;;;5051253;28;19923;-70
2021/01/24 03:41:45;;;;;;;;;;;9.00;99.90;;;;;;5049854;28;19924;-71
2021/01/24 03:44:49;;;;;;;;;;;9.00;99.90;;;;;;5037575;28;19935;-70
2021/01/24 03:47:53;;;;;;;;;;;8.70;99.90;;;;;;5050688;28;19920;-70
2021/01/24 03:50:58;;;;;;;;;;;8.60;99.90;;;;;;5049794;28;19920;-70
2021/01/24 03:54:02;;;;;;;;;;;8.40;99.90;;;;;;5050616;28;19940;-70
2021/01/24 03:57:05;;;;;;;;;;;8.20;99.90;;;;;;5050560;28;19920;-70
2021/01/24 04:00:10;;;;;;;;;;;8.10;99.90;;;;;;5049595;28;20414;-70
2021/01/24 04:03:16;;;;;;;;;;;8.10;99.90;;;;;;5051041;28;19920;-71
2021/01/24 04:06:20;;;;;;;;;;;8.20;99.90;;;;;;5050187;28;19920;-69
2021/01/24 04:09:24;;;;;;;;;;;8.10;99.90;;;;;;5050776;28;20291;-71
2021/01/24 04:12:34;;;;;;;;;;;8.10;99.90;;;;;;5050776;28;19920;-70
2021/01/24 04:15:38;;;;;;;;;;;8.10;99.90;;;;;;5039281;28;19920;-70
2021/01/24 04:18:42;;;;;;;;;;;8.00;99.90;;;;;;5050514;28;19923;-70
2021/01/24 04:21:46;;;;;;;;;;;8.00;99.90;;;;;;5049449;28;19924;-70
2021/01/24 04:24:50;;;;;;;;;;;8.00;99.90;;;;;;5050592;28;19923;-70
2021/01/24 04:27:54;;;;;;;;;;;7.90;99.90;;;;;;5037632;28;19924;-70
2021/01/24 04:30:58;;;;;;;;;;;7.90;99.90;;;;;;5050022;28;19920;-70
2021/01/24 04:34:02;;;;;;;;;;;8.00;99.90;;;;;;5050963;28;20386;-70
2021/01/24 04:37:06;;;;;;;;;;;7.90;99.90;;;;;;5049935;28;19924;-70
2021/01/24 04:40:10;;;;;;;;;;;8.00;99.90;;;;;;5050419;28;19990;-70
2021/01/24 04:43:14;;;;;;;;;;;8.00;99.90;;;;;;5037944;28;19932;-70
2021/01/24 04:46:18;;;;;;;;;;;8.00;99.90;;;;;;5049656;28;19924;-69
2021/01/24 04:49:22;;;;;;;;;;;8.10;99.90;;;;;;5050310;28;19923;-69
2021/01/24 04:52:26;;;;;;;;;;;8.10;99.90;;;;;;5050594;28;19920;-70
2021/01/24 04:55:30;;;;;;;;;;;8.10;99.90;;;;;;5051043;28;19940;-70
2021/01/24 04:58:36;;;;;;;;;;;8.10;99.90;;;;;;5053648;28;20685;-70
2021/01/24 05:01:42;;;;;;;;;;;8.10;99.90;;;;;;5053523;28;19927;-70
2021/01/24 05:04:46;;;;;;;;;;;8.00;99.90;;;;;;5054165;28;19923;-70
2021/01/24 05:07:51;;;;;;;;;;;8.10;99.90;;;;;;5053858;28;19923;-69
2021/01/24 05:11:01;;;;;;;;;;;8.10;99.90;;;;;;5053091;28;19920;-70
2021/01/24 05:14:15;;;;;;;;;;;8.10;99.90;;;;;;5053807;28;19924;-70
2021/01/24 05:17:19;;;;;;;;;;;8.10;99.90;;;;;;5042892;28;19920;-70
2021/01/24 05:20:24;;;;;;;;;;;7.90;99.90;;;;;;5052971;28;19924;-70
2021/01/24 05:23:27;;;;;;;;;;;7.90;99.90;;;;;;5054348;28;19924;-70
2021/01/24 05:26:32;;;;;;;;;;;7.80;99.90;;;;;;5054044;28;19924;-70
2021/01/24 05:29:37;;;;;;;;;;;7.80;99.90;;;;;;5040360;28;19924;-70
2021/01/24 05:32:42;;;;;;;;;;;7.80;99.90;;;;;;5054406;28;19923;-70
2021/01/24 05:35:50;;;;;;;;;;;7.80;99.90;;;;;;5053333;28;19924;-70
2021/01/24 05:38:54;;;;;;;;;;;7.90;99.90;;;;;;5054203;28;20692;-70
2021/01/24 05:42:00;;;;;;;;;;;7.90;99.90;;;;;;5053568;28;19927;-69
2021/01/24 05:45:24;;;;;;;;;;;7.90;99.90;;;;;;5054085;28;19920;-69
2021/01/24 05:48:28;;;;;;;;;;;8.00;99.90;;;;;;5042849;28;19924;-69
2021/01/24 05:51:32;;;;;;;;;;;8.00;99.90;;;;;;5052868;28;19935;-70
2021/01/24 05:54:56;;;;;;;;;;;8.10;99.90;;;;;;5053987;28;20335;-69
2021/01/24 05:58:14;;;;;;;;;;;8.10;99.90;;;;;;5053384;28;19922;-69
2021/01/24 06:01:19;;;;;;;;;;;8.00;99.90;;;;;;5052473;28;20256;-69
2021/01/24 06:04:22;;;;;;;;;;;8.00;99.90;;;;;;5053843;28;19920;-70
2021/01/24 06:07:26;;;;;;;;;;;8.00;99.90;;;;;;5053742;28;19920;-70
2021/01/24 06:10:30;;;;;;;;;;;8.10;99.90;;;;;;5040699;28;19936;-70
2021/01/24 06:13:34;;;;;;;;;;;8.00;99.90;;;;;;5052771;28;20286;-68
2021/01/24 06:16:39;;;;;;;;;;;8.00;99.90;;;;;;5053167;28;19936;-70
2021/01/24 06:19:47;;;;;;;;;;;7.90;99.90;;;;;;5051315;28;19928;-68
2021/01/24 06:22:58;;;;;;;;;;;8.00;99.90;;;;;;5050537;28;19932;-70
2021/01/24 06:26:04;;;;;;;;;;;8.00;99.90;;;;;;5045909;28;19928;-69
2021/01/24 06:29:08;;;;;;;;;;;8.00;99.90;;;;;;5045690;28;19940;-69
2021/01/24 06:32:23;;;;;;;;;;;8.10;99.90;;;;;;5052729;28;20481;-69
2021/01/24 06:35:27;;;;;;;;;;;8.10;99.90;;;;;;5052349;28;19920;-69
2021/01/24 06:38:32;;;;;;;;;;;8.10;99.90;;;;;;5052769;28;19920;-69
2021/01/24 06:41:43;;;;;;;;;;;8.00;99.90;;;;;;5051956;28;19927;-69
2021/01/24 06:44:47;;;;;;;;;;;8.10;99.90;;;;;;5051799;28;19920;-69
2021/01/24 06:47:51;;;;;;;;;;;8.10;99.90;;;;;;5040019;28;19924;-69
2021/01/24 06:50:55;;;;;;;;;;;7.80;99.90;;;;;;5050766;28;19920;-69
2021/01/24 06:54:20;;;;;;;;;;;7.60;99.90;;;;;;5047304;28;20264;-69
2021/01/24 06:57:33;;;;;;;;;;;7.60;99.90;;;;;;5053253;28;19927;-69
2021/01/24 07:00:37;;;;;;;;;;;7.60;99.90;;;;;;5048917;28;19920;-70
2021/01/24 07:03:40;;;;;;;;;;;7.60;99.90;;;;;;5049033;28;20363;-70
2021/01/24 07:06:45;;;;;;;;;;;7.60;99.90;;;;;;5050368;28;19923;-70
2021/01/24 07:09:49;;;;;;;;;;;7.60;99.90;;;;;;5049004;28;19920;-70
2021/01/24 07:12:54;;;;;;;;;;;7.60;99.90;;;;;;5050561;28;19923;-69
2021/01/24 07:15:58;;;;;;;;;;;7.60;99.90;;;;;;5051002;28;19955;-70
2021/01/24 07:19:02;;;;;;;;;;;7.60;99.90;;;;;;5051501;28;20303;-70
2021/01/24 07:22:06;;;;;;;;;;;7.60;99.90;;;;;;5050708;28;19928;-70
2021/01/24 07:25:11;;;;;;;;;;;7.60;99.90;;;;;;5041942;28;20148;-70
2021/01/24 07:28:16;;;;;;;;;;;7.70;99.90;;;;;;5039778;28;19924;-69
2021/01/24 07:31:21;;;;;;;;;;;7.60;99.90;;;;;;5049422;28;19920;-70
2021/01/24 07:34:25;;;;;;;;;;;7.60;99.90;;;;;;5050866;28;19920;-70
2021/01/24 07:37:30;;;;;;;;;;;7.70;99.90;;;;;;5032233;28;19916;-69
2021/01/24 07:40:34;;;;;;;;;;;7.70;99.90;;;;;;5038793;28;19932;-69
2021/01/24 07:47:48;;;;;;;;;;;7.60;99.90;;;;;;4993395;28;19925;-69
2021/01/24 07:50:52;;;;;;;;;;;7.80;99.90;;;;;;5042125;28;19924;-69
2021/01/24 07:53:57;;;;;;;;;;;7.80;99.90;;;;;;5040857;28;19920;-69
2021/01/24 08:05:53;;;;;;;;;;;7.80;99.90;;;;;;5048929;28;19938;-70
2021/01/24 08:09:00;;;;;;;;;;;7.80;99.90;;;;;;5044995;28;19923;-69
2021/01/24 08:30:39;;;;;;;;;;;7.50;99.90;;;;;;5024874;28;20627;-69
2021/01/24 08:51:45;;;;;;;;;;;7.50;99.90;;;;;;5051043;28;20386;-69
2021/01/24 08:54:59;;;;;;;;;;;7.60;99.90;;;;;;5050107;28;19928;-69
2021/01/24 08:58:21;;;;;;;;;;;7.70;99.90;;;;;;5045060;28;19924;-69
2021/01/24 09:01:49;;;;;;;;;;;7.80;99.90;;;;;;5049920;28;19948;-69
2021/01/24 09:04:53;;;;;;;;;;;7.90;99.90;;;;;;5045402;28;19936;-69
2021/01/24 09:11:19;;;;;;;;;;;8.10;99.90;;;;;;5045006;28;19920;-69
2021/01/24 09:14:25;;;;;;;;;;;8.30;99.90;;;;;;5046538;28;19920;-69
2021/01/24 09:17:29;;;;;;;;;;;8.30;99.90;;;;;;5050498;28;19920;-69
2021/01/24 09:23:59;;;;;;;;;;;8.40;99.90;;;;;;5050533;28;19936;-69
2021/01/24 09:27:04;;;;;;;;;;;8.40;99.90;;;;;;5040743;28;19924;-69
2021/01/24 09:30:30;;;;;;;;;;;8.40;99.90;;;;;;5049317;28;19935;-69
2021/01/24 09:33:53;;;;;;;;;;;8.40;99.90;;;;;;5049024;28;19920;-69
2021/01/24 09:36:58;;;;;;;;;;;8.40;99.90;;;;;;5050139;28;19923;-69
2021/01/24 09:40:20;;;;;;;;;;;8.30;99.90;;;;;;5048400;28;19935;-69
2021/01/24 09:47:25;;;;;;;;;;;8.30;99.90;;;;;;5050207;28;19924;-69
2021/01/24 09:50:30;;;;;;;;;;;8.10;99.90;;;;;;5050239;28;19923;-70
2021/01/24 09:53:36;;;;;;;;;;;8.00;99.90;;;;;;5048792;28;19924;-69
2021/01/24 09:56:59;;;;;;;;;;;7.90;99.90;;;;;;5049973;28;20273;-69
2021/01/24 10:00:05;;;;;;;;;;;7.80;99.90;;;;;;5038103;28;19958;-69
2021/01/24 10:03:35;;;;;;;;;;;7.80;99.90;;;;;;5017438;28;19932;-69
2021/01/24 10:06:40;;;;;;;;;;;7.80;99.90;;;;;;5015911;28;19936;-68
2021/01/24 10:09:44;;;;;;;;;;;7.80;99.90;;;;;;5036237;28;19928;-68
2021/01/24 10:13:08;;;;;;;;;;;7.90;99.90;;;;;;5034259;28;20861;-69
2021/01/24 10:16:11;;;;;;;;;;;8.00;99.90;;;;;;5033781;28;20280;-69
2021/01/24 10:19:34;;;;;;;;;;;8.10;99.90;;;;;;5027895;28;19928;-68
2021/01/24 10:22:57;;;;;;;;;;;8.10;99.90;;;;;;5033299;28;20164;-69
2021/01/24 10:26:02;;;;;;;;;;;8.20;99.90;;;;;;5033771;28;19924;-69
2021/01/24 10:32:31;;;;;;;;;;;8.20;99.90;;;;;;5032780;28;19924;-69
2021/01/24 10:35:37;;;;;;;;;;;8.10;99.90;;;;;;5034654;28;19927;-69
2021/01/24 10:39:01;;;;;;;;;;;8.10;99.90;;;;;;5026688;28;19919;-70
2021/01/24 10:46:05;;;;;;;;;;;8.10;99.90;;;;;;5028483;28;19927;-69
2021/01/24 10:49:31;;;;;;;;;;;8.10;99.90;;;;;;5029010;28;19920;-69
2021/01/24 11:00:19;;;;;;;;;;;8.20;99.90;;;;;;5026507;28;19932;-69
2021/01/24 11:03:42;;;;;;;;;;;8.30;99.90;;;;;;5026401;28;19932;-68
2021/01/24 11:14:11;;;;;;;;;;;9.00;99.90;;;;;;5037502;28;20470;-69
2021/01/24 11:20:57;;;;;;;;;;;9.20;99.90;;;;;;5027036;28;19928;-69
2021/01/24 11:24:11;;;;;;;;;;;9.20;99.90;;;;;;5030837;28;20406;-70
2021/01/24 11:30:39;;;;;;;;;;;9.40;99.90;;;;;;5048730;28;20260;-69
2021/01/24 11:34:02;;;;;;;;;;;9.50;99.90;;;;;;5040350;28;19924;-69
2021/01/24 11:37:24;;;;;;;;;;;9.70;99.90;;;;;;5038690;28;19920;-69
2021/01/24 11:40:47;;;;;;;;;;;9.90;99.90;;;;;;5045390;28;19928;-70
2021/01/24 11:44:11;;;;;;;;;;;10.00;99.90;;;;;;5029304;28;20433;-69
2021/01/24 11:47:34;;;;;;;;;;;10.10;99.90;;;;;;5033083;28;19924;-69
2021/01/24 11:54:39;;;;;;;;;;;10.00;99.90;;;;;;5047016;28;19920;-69
2021/01/24 12:05:25;;;;;;;;;;;10.30;99.90;;;;;;5037501;28;20379;-70
2021/01/24 12:08:29;;;;;;;;;;;10.20;99.90;;;;;;5048981;28;20296;-70
2021/01/24 12:11:52;;;;;;;;;;;10.20;99.90;;;;;;5044710;28;20386;-69
2021/01/24 12:15:05;;;;;;;;;;;10.30;99.90;;;;;;5049106;28;20272;-70
2021/01/24 12:18:31;;;;;;;;;;;10.40;99.90;;;;;;5046879;28;19923;-70
2021/01/24 12:21:36;;;;;;;;;;;11.00;99.90;;;;;;5046785;28;19927;-70
2021/01/24 12:24:40;;;;;;;;;;;11.50;99.90;;;;;;5045187;28;20379;-69
2021/01/24 12:28:10;;;;;;;;;;;12.10;99.90;;;;;;5045674;28;20383;-69
2021/01/24 12:31:33;;;;;;;;;;;13.10;99.90;;;;;;5041417;28;19924;-70
2021/01/24 12:34:55;;;;;;;;;;;14.70;99.90;;;;;;5046364;28;19932;-69
2021/01/24 12:38:19;;;;;;;;;;;16.70;99.90;;;;;;5045661;28;19920;-69
2021/01/24 12:41:42;;;;;;;;;;;19.20;99.90;;;;;;5045608;28;19919;-69
2021/01/24 12:44:46;;;;;;;;;;;19.50;97.10;;;;;;5037710;28;19928;-68
2021/01/24 12:48:27;;;;;;;;;;;17.80;98.40;;;;;;5046990;28;19924;-69
2021/01/24 12:51:31;;;;;;;;;;;16.40;99.60;;;;;;5045277;28;19944;-69
2021/01/24 12:54:35;;;;;;;;;;;15.40;99.80;;;;;;5047421;28;19924;-69
2021/01/24 12:57:45;;;;;;;;;;;13.90;99.90;;;;;;5046400;28;19920;-69
2021/01/24 13:00:52;;;;;;;;;;;13.20;99.90;;;;;;5048282;28;19919;-68
2021/01/24 13:03:56;;;;;;;;;;;12.40;99.90;;;;;;5047329;28;19924;-69
2021/01/24 13:14:24;;;;;;;;;;;11.30;99.90;;;;;;5047669;28;19959;-69
2021/01/24 13:17:46;;;;;;;;;;;10.90;99.90;;;;;;5047619;28;20264;-68
2021/01/24 13:20:51;;;;;;;;;;;10.70;99.90;;;;;;5047090;28;20318;-68
2021/01/24 13:27:36;;;;;;;;;;;10.50;99.90;;;;;;5044248;28;19920;-69
2021/01/24 13:31:02;;;;;;;;;;;10.50;99.90;;;;;;5051569;28;19917;-69
2021/01/24 13:34:07;;;;;;;;;;;10.30;99.90;;;;;;5047962;28;19919;-68
2021/01/24 13:37:11;;;;;;;;;;;10.10;99.90;;;;;;5051543;28;19924;-69
2021/01/24 13:40:15;;;;;;;;;;;9.80;99.90;;;;;;5047029;28;20394;-70
2021/01/24 13:43:38;;;;;;;;;;;9.60;99.90;;;;;;5042295;28;19924;-69
2021/01/24 13:46:49;;;;;;;;;;;9.40;99.90;;;;;;5043317;28;19928;-70
2021/01/24 13:50:13;;;;;;;;;;;9.30;99.90;;;;;;5043489;28;19924;-70
2021/01/24 13:56:39;;;;;;;;;;;8.70;99.90;;;;;;5051984;28;19928;-69
2021/01/24 13:59:49;;;;;;;;;;;8.60;99.90;;;;;;5050550;28;20399;-68
2021/01/24 14:03:12;;;;;;;;;;;8.60;99.90;;;;;;5050832;28;19928;-69
2021/01/24 14:06:34;;;;;;;;;;;8.60;99.90;;;;;;5050920;28;19919;-69
2021/01/24 14:09:57;;;;;;;;;;;8.60;99.90;;;;;;5051286;28;19924;-69
2021/01/24 14:13:02;;;;;;;;;;;8.80;99.90;;;;;;5051156;28;19928;-69
2021/01/24 14:16:19;;;;;;;;;;;8.90;99.90;;;;;;5041845;28;20303;-68
2021/01/24 14:23:04;;;;;;;;;;;8.90;99.90;;;;;;5051320;28;20399;-68
2021/01/24 14:26:11;;;;;;;;;;;9.00;99.90;;;;;;5040343;28;19920;-68
2021/01/24 14:29:15;;;;;;;;;;;9.00;99.90;;;;;;5049992;28;19920;-69
2021/01/24 14:32:21;;;;;;;;;;;8.90;99.90;;;;;;5050655;28;19923;-68
2021/01/24 14:35:45;;;;;;;;;;;8.70;99.90;;;;;;5049716;28;20287;-69
2021/01/24 14:38:49;;;;;;;;;;;8.70;99.90;;;;;;5049723;28;20398;-69
2021/01/24 14:42:08;;;;;;;;;;;8.70;99.90;;;;;;5049335;28;19924;-68
2021/01/24 14:45:32;;;;;;;;;;;8.90;99.90;;;;;;5047057;28;19920;-69
2021/01/24 14:48:37;;;;;;;;;;;9.00;99.90;;;;;;5049926;28;20379;-69
2021/01/24 14:51:41;;;;;;;;;;;9.20;99.90;;;;;;5041639;28;19920;-68
2021/01/24 14:55:23;;;;;;;;;;;9.10;99.90;;;;;;5050005;28;19928;-67
2021/01/24 15:06:48;;;;;;;;;;;8.70;99.90;;;;;;5050047;28;19920;-69
2021/01/24 15:10:11;;;;;;;;;;;8.30;99.90;;;;;;5040364;28;21225;-68
2021/01/24 15:13:31;;;;;;;;;;;8.10;99.90;;;;;;5047798;28;19920;-69
2021/01/24 15:23:50;;;;;;;;;;;8.80;99.90;;;;;;5049242;28;19943;-68
2021/01/24 15:27:03;;;;;;;;;;;8.70;99.90;;;;;;5041171;28;20322;-68
2021/01/24 15:30:07;;;;;;;;;;;8.80;99.90;;;;;;5047402;28;19931;-68
2021/01/24 15:33:12;;;;;;;;;;;9.40;99.90;;;;;;5039106;28;19920;-68
2021/01/24 15:36:35;;;;;;;;;;;9.40;99.90;;;;;;5046732;28;20260;-69
2021/01/24 15:39:42;;;;;;;;;;;9.30;99.90;;;;;;5044946;28;19931;-68
2021/01/24 15:46:27;;;;;;;;;;;9.90;99.90;;;;;;5029958;28;20403;-68
2021/01/24 15:52:57;;;;;;;;;;;10.40;99.90;;;;;;5031587;28;19928;-69
2021/01/24 15:56:03;;;;;;;;;;;10.20;99.90;;;;;;5017156;28;19921;-69
2021/01/24 16:02:31;;;;;;;;;;;9.40;99.90;;;;;;5030427;28;19932;-68
2021/01/24 16:05:55;;;;;;;;;;;8.60;99.90;;;;;;5027985;28;19928;-68
2021/01/24 16:12:35;;;;;;;;;;;7.40;99.90;;;;;;5030004;28;19952;-68
2021/01/24 16:15:40;;;;;;;;;;;7.00;99.90;;;;;;5026247;28;19928;-68
2021/01/24 16:22:27;;;;;;;;;;;6.50;99.90;;;;;;5042656;28;19931;-68
2021/01/24 16:25:34;;;;;;;;;;;6.30;99.90;;;;;;5041511;28;20369;-69
2021/01/24 16:28:40;;;;;;;;;;;6.10;99.90;;;;;;5043861;28;19928;-68
2021/01/24 16:32:05;;;;;;;;;;;5.90;99.90;;;;;;5028758;28;19940;-67
2021/01/24 16:35:47;;;;;;;;;;;5.70;99.90;;;;;;5029903;28;19939;-68
2021/01/24 16:39:48;;;;;;;;;;;5.60;99.90;;;;;;5027729;28;20292;-68
2021/01/24 16:43:55;;;;;;;;;;;5.50;99.90;;;;;;5032900;28;19928;-66
2021/01/24 16:47:00;;;;;;;;;;;5.20;99.90;;;;;;5028141;28;19920;-68
2021/01/24 16:57:34;;;;;;;;;;;4.90;99.90;;;;;;5047857;28;20161;-69
2021/01/24 17:00:57;;;;;;;;;;;4.80;99.90;;;;;;5047553;28;20422;-68
2021/01/24 17:04:03;;;;;;;;;;;4.70;99.90;;;;;;5042885;28;20000;-68
2021/01/24 17:07:46;;;;;;;;;;;4.70;99.90;;;;;;5047002;28;19924;-69
2021/01/24 17:11:29;;;;;;;;;;;4.60;99.90;;;;;;5049395;28;19944;-69
2021/01/24 17:14:53;;;;;;;;;;;4.60;99.90;;;;;;5050008;28;19920;-69
2021/01/24 17:17:58;;;;;;;;;;;4.50;99.90;;;;;;5047874;28;19920;-68
2021/01/24 17:21:04;;;;;;;;;;;4.50;99.90;;;;;;5043669;28;19932;-69
2021/01/24 17:24:10;;;;;;;;;;;4.40;99.90;;;;;;5038094;28;20347;-69
2021/01/24 17:27:34;;;;;;;;;;;4.30;99.90;;;;;;5049373;28;19967;-68
2021/01/24 17:31:01;;;;;;;;;;;4.30;99.90;;;;;;5042446;28;19920;-68
2021/01/24 17:34:25;;;;;;;;;;;4.20;99.90;;;;;;5046859;28;19927;-68
2021/01/24 17:37:30;;;;;;;;;;;4.20;99.90;;;;;;5049714;28;19931;-68
2021/01/24 17:44:17;;;;;;;;;;;4.30;99.90;;;;;;5043528;28;19947;-68
2021/01/24 17:47:22;;;;;;;;;;;4.20;99.90;;;;;;5050411;28;19920;-69
2021/01/24 17:50:28;;;;;;;;;;;4.20;99.90;;;;;;5046869;28;19939;-68
2021/01/24 17:53:32;;;;;;;;;;;4.10;99.90;;;;;;5040826;28;19924;-68
2021/01/24 17:56:39;;;;;;;;;;;4.00;99.90;;;;;;5031539;28;19924;-69
2021/01/24 18:06:50;;;;;;;;;;;3.90;99.90;;;;;;5041963;28;19919;-69
2021/01/24 18:09:55;;;;;;;;;;;3.90;99.90;;;;;;5045328;28;20287;-69
2021/01/24 18:13:00;;;;;;;;;;;3.80;99.90;;;;;;5048204;28;19923;-68
2021/01/24 18:22:59;;;;;;;;;;;3.60;99.90;;;;;;5049899;28;19924;-68
2021/01/24 18:26:42;;;;;;;;;;;3.50;99.90;;;;;;5049825;28;20552;-69
2021/01/24 18:29:48;;;;;;;;;;;3.50;99.90;;;;;;5047649;28;20386;-69
2021/01/24 18:33:10;;;;;;;;;;;3.50;99.90;;;;;;5049714;28;19928;-69
2021/01/24 18:36:14;;;;;;;;;;;3.40;99.90;;;;;;5051001;28;20275;-69
2021/01/24 18:39:27;;;;;;;;;;;3.30;99.90;;;;;;5045807;28;19943;-68
2021/01/24 18:42:34;;;;;;;;;;;3.30;99.90;;;;;;5051329;28;19923;-66
2021/01/24 18:46:06;;;;;;;;;;;3.30;99.90;;;;;;5049171;28;19920;-67
2021/01/24 18:49:29;;;;;;;;;;;3.20;99.90;;;;;;5041649;28;19935;-67
2021/01/24 18:52:34;;;;;;;;;;;3.20;99.90;;;;;;5038361;28;20474;-68
2021/01/24 18:55:41;;;;;;;;;;;3.20;99.90;;;;;;5049868;28;20152;-67
2021/01/24 18:59:03;;;;;;;;;;;3.20;99.90;;;;;;5049768;28;19924;-69
2021/01/24 19:06:06;;;;;;;;;;;3.30;99.90;;;;;;5050040;28;19920;-68
2021/01/24 19:12:53;;;;;;;;;;;3.40;99.90;;;;;;5048802;28;19920;-69
2021/01/24 19:15:56;;;;;;;;;;;3.40;99.90;;;;;;5046696;28;19920;-69
2021/01/24 19:19:19;;;;;;;;;;;3.40;99.90;;;;;;5044030;28;20110;-67
2021/01/24 19:22:23;;;;;;;;;;;3.40;99.90;;;;;;5050337;28;19924;-69
2021/01/24 19:25:29;;;;;;;;;;;3.40;99.90;;;;;;5045739;28;20414;-68
2021/01/24 19:28:33;;;;;;;;;;;3.30;99.90;;;;;;5042209;28;20419;-68
2021/01/24 19:31:49;;;;;;;;;;;3.20;99.90;;;;;;5038459;28;19923;-67
2021/01/24 19:35:15;;;;;;;;;;;3.20;99.90;;;;;;5050034;28;19919;-69
2021/01/24 19:38:19;;;;;;;;;;;3.20;99.90;;;;;;5035983;28;19936;-69
2021/01/24 19:41:23;;;;;;;;;;;3.20;99.90;;;;;;5049603;28;19924;-69
2021/01/24 19:52:00;;;;;;;;;;;3.00;99.90;;;;;;5049021;28;20402;-69
2021/01/24 19:55:22;;;;;;;;;;;2.90;99.90;;;;;;5050362;28;19939;-69
2021/01/24 19:58:28;;;;;;;;;;;2.90;99.90;;;;;;5041692;28;20356;-67
2021/01/24 20:01:58;;;;;;;;;;;2.90;99.90;;;;;;5029299;28;19924;-68
2021/01/24 20:05:03;;;;;;;;;;;3.00;99.90;;;;;;5045118;28;19951;-69
2021/01/24 20:12:28;;;;;;;;;;;3.30;99.90;;;;;;5046857;28;20402;-69
2021/01/24 20:15:52;;;;;;;;;;;3.50;99.90;;;;;;5065422;28;20384;-68
2021/01/24 20:18:56;;;;;;;;;;;3.50;99.90;;;;;;5039994;28;19944;-68
2021/01/24 20:22:00;;;;;;;;;;;3.50;99.90;;;;;;5042290;28;19936;-67
2021/01/24 20:25:04;;;;;;;;;;;3.50;99.90;;;;;;5050004;28;19927;-69
2021/01/24 20:28:08;;;;;;;;;;;3.40;99.90;;;;;;5049096;28;19939;-67
2021/01/24 20:31:12;;;;;;;;;;;3.30;99.90;;;;;;5042453;28;20379;-68
2021/01/24 20:34:16;;;;;;;;;;;3.30;99.90;;;;;;5043504;28;19923;-66
2021/01/24 20:37:22;;;;;;;;;;;3.40;99.90;;;;;;5037755;28;19924;-69
2021/01/24 20:40:26;;;;;;;;;;;3.40;99.90;;;;;;5049455;28;20395;-69
2021/01/24 20:43:30;;;;;;;;;;;3.50;99.90;;;;;;5035777;28;19924;-67
2021/01/24 20:46:34;;;;;;;;;;;3.50;99.90;;;;;;5043636;28;19936;-69
2021/01/24 20:49:38;;;;;;;;;;;3.50;99.90;;;;;;5039519;28;19940;-69
2021/01/24 20:52:42;;;;;;;;;;;3.50;99.90;;;;;;5037452;28;19920;-68
2021/01/24 20:55:46;;;;;;;;;;;3.40;99.90;;;;;;5045266;28;20384;-69
2021/01/24 20:58:50;;;;;;;;;;;3.20;99.90;;;;;;5045737;28;19923;-68
2021/01/24 21:01:55;;;;;;;;;;;3.00;99.90;;;;;;5036009;28;19920;-69
2021/01/24 21:04:59;;;;;;;;;;;2.80;99.90;;;;;;5040193;28;19928;-68
2021/01/24 21:08:04;;;;;;;;;;;2.80;99.90;;;;;;5048343;28;20378;-68
2021/01/24 21:11:08;;;;;;;;;;;2.80;99.90;;;;;;5049042;28;20279;-66
2021/01/24 21:14:12;;;;;;;;;;;2.80;99.90;;;;;;5036002;28;20404;-69
2021/01/24 21:17:16;;;;;;;;;;;2.90;99.90;;;;;;5039613;28;19920;-69
2021/01/24 21:20:20;;;;;;;;;;;2.90;99.90;;;;;;5048539;28;19931;-68
2021/01/24 21:23:25;;;;;;;;;;;2.90;99.90;;;;;;5044170;28;19930;-68
2021/01/24 21:26:29;;;;;;;;;;;2.90;99.90;;;;;;5045563;28;19924;-68
2021/01/24 21:29:34;;;;;;;;;;;2.80;99.90;;;;;;5048982;28;19927;-69
2021/01/24 21:32:38;;;;;;;;;;;2.80;99.90;;;;;;5045015;28;19923;-69
2021/01/24 21:35:42;;;;;;;;;;;2.80;99.90;;;;;;5037063;28;20511;-69
2021/01/24 21:38:48;;;;;;;;;;;2.70;99.90;;;;;;5049226;28;19923;-68
2021/01/24 21:41:52;;;;;;;;;;;2.60;99.90;;;;;;5038396;28;19920;-68
2021/01/24 21:44:55;;;;;;;;;;;2.50;99.90;;;;;;5052526;28;20287;-68
2021/01/24 21:47:59;;;;;;;;;;;2.50;99.90;;;;;;5052742;28;19920;-68
2021/01/24 21:51:04;;;;;;;;;;;2.40;99.90;;;;;;5032122;28;19920;-68
2021/01/24 21:54:08;;;;;;;;;;;2.40;99.90;;;;;;5052336;28;19928;-68